sensor_id;sensor_type;location;lat;lon;timestamp;P1;durP1;ratioP1;P2;durP2;ratioP2
10191;SDS011;17580;50.850;4.504;2023-03-01T00:01:38;7.03;;;6.37;;
10191;SDS011;17580;50.850;4.504;2023-03-01T00:04:05;8.03;;;6.67;;
10191;SDS011;17580;50.850;4.504;2023-03-01T00:06:32;6.83;;;6.13;;
10191;SDS011;17580;50.850;4.504;2023-03-01T00:08:59;7.53;;;6.63;;
10191;SDS011;17580;50.850;4.504;2023-03-01T00:11:27;6.60;;;6.00;;
10191;SDS011;17580;50.850;4.504;2023-03-01T00:13:58;7.93;;;6.27;;
10191;SDS011;17580;50.850;4.504;2023-03-01T00:16:26;6.57;;;5.97;;
10191;SDS011;17580;50.850;4.504;2023-03-01T00:18:56;6.57;;;5.93;;
10191;SDS011;17580;50.850;4.504;2023-03-01T00:21:23;8.03;;;6.27;;
10191;SDS011;17580;50.850;4.504;2023-03-01T00:23:51;7.37;;;6.53;;
10191;SDS011;17580;50.850;4.504;2023-03-01T00:26:20;6.97;;;6.27;;
10191;SDS011;17580;50.850;4.504;2023-03-01T00:28:48;7.37;;;5.77;;
10191;SDS011;17580;50.850;4.504;2023-03-01T00:31:18;7.43;;;6.70;;
10191;SDS011;17580;50.850;4.504;2023-03-01T00:33:47;7.07;;;6.40;;
10191;SDS011;17580;50.850;4.504;2023-03-01T00:36:14;6.27;;;5.77;;
10191;SDS011;17580;50.850;4.504;2023-03-01T00:38:42;6.57;;;5.80;;
10191;SDS011;17580;50.850;4.504;2023-03-01T00:41:11;7.60;;;6.73;;
10191;SDS011;17580;50.850;4.504;2023-03-01T00:43:40;7.60;;;6.20;;
10191;SDS011;17580;50.850;4.504;2023-03-01T00:46:08;6.80;;;6.20;;
10191;SDS011;17580;50.850;4.504;2023-03-01T00:48:38;7.70;;;6.70;;
10191;SDS011;17580;50.850;4.504;2023-03-01T00:51:05;6.93;;;6.13;;
10191;SDS011;17580;50.850;4.504;2023-03-01T00:53:33;6.50;;;5.87;;
10191;SDS011;17580;50.850;4.504;2023-03-01T00:56:00;8.33;;;6.43;;
10191;SDS011;17580;50.850;4.504;2023-03-01T00:58:28;7.50;;;6.67;;
10191;SDS011;17580;50.850;4.504;2023-03-01T01:00:55;6.90;;;6.20;;
10191;SDS011;17580;50.850;4.504;2023-03-01T01:03:22;8.87;;;6.90;;
10191;SDS011;17580;50.850;4.504;2023-03-01T01:05:52;7.10;;;6.27;;
10191;SDS011;17580;50.850;4.504;2023-03-01T01:08:19;7.00;;;5.83;;
10191;SDS011;17580;50.850;4.504;2023-03-01T01:10:47;7.97;;;5.93;;
10191;SDS011;17580;50.850;4.504;2023-03-01T01:13:14;6.43;;;5.70;;
10191;SDS011;17580;50.850;4.504;2023-03-01T01:15:41;6.70;;;6.00;;
10191;SDS011;17580;50.850;4.504;2023-03-01T01:18:08;9.80;;;6.63;;
10191;SDS011;17580;50.850;4.504;2023-03-01T01:20:35;6.67;;;5.97;;
10191;SDS011;17580;50.850;4.504;2023-03-01T01:23:06;6.20;;;5.60;;
10191;SDS011;17580;50.850;4.504;2023-03-01T01:25:34;7.07;;;6.03;;
10191;SDS011;17580;50.850;4.504;2023-03-01T01:28:02;7.70;;;6.60;;
10191;SDS011;17580;50.850;4.504;2023-03-01T01:30:29;8.83;;;5.77;;
10191;SDS011;17580;50.850;4.504;2023-03-01T01:32:56;7.03;;;6.23;;
10191;SDS011;17580;50.850;4.504;2023-03-01T01:35:23;8.13;;;6.37;;
10191;SDS011;17580;50.850;4.504;2023-03-01T01:37:50;7.10;;;6.03;;
10191;SDS011;17580;50.850;4.504;2023-03-01T01:40:19;7.37;;;5.83;;
10191;SDS011;17580;50.850;4.504;2023-03-01T01:42:46;6.33;;;5.77;;
10191;SDS011;17580;50.850;4.504;2023-03-01T01:48:03;7.03;;;6.33;;
10191;SDS011;17580;50.850;4.504;2023-03-01T01:50:33;6.77;;;6.17;;
10191;SDS011;17580;50.850;4.504;2023-03-01T01:53:05;6.50;;;5.83;;
10191;SDS011;17580;50.850;4.504;2023-03-01T01:55:37;7.00;;;5.93;;
10191;SDS011;17580;50.850;4.504;2023-03-01T01:58:07;6.07;;;5.53;;
10191;SDS011;17580;50.850;4.504;2023-03-01T02:00:37;6.97;;;6.37;;
10191;SDS011;17580;50.850;4.504;2023-03-01T02:03:06;6.57;;;5.83;;
10191;SDS011;17580;50.850;4.504;2023-03-01T02:05:37;6.50;;;5.83;;
10191;SDS011;17580;50.850;4.504;2023-03-01T02:08:09;9.30;;;6.47;;
10191;SDS011;17580;50.850;4.504;2023-03-01T02:10:40;6.67;;;5.90;;
10191;SDS011;17580;50.850;4.504;2023-03-01T02:13:08;6.30;;;5.70;;
10191;SDS011;17580;50.850;4.504;2023-03-01T02:15:36;6.07;;;5.40;;
10191;SDS011;17580;50.850;4.504;2023-03-01T02:18:05;7.53;;;5.97;;
10191;SDS011;17580;50.850;4.504;2023-03-01T02:20:35;5.70;;;5.20;;
10191;SDS011;17580;50.850;4.504;2023-03-01T02:23:11;7.40;;;6.20;;
10191;SDS011;17580;50.850;4.504;2023-03-01T02:25:41;6.33;;;5.77;;
10191;SDS011;17580;50.850;4.504;2023-03-01T02:28:23;6.20;;;5.60;;
10191;SDS011;17580;50.850;4.504;2023-03-01T02:30:56;6.40;;;5.80;;
10191;SDS011;17580;50.850;4.504;2023-03-01T02:33:40;6.20;;;5.60;;
10191;SDS011;17580;50.850;4.504;2023-03-01T02:36:10;6.13;;;5.63;;
10191;SDS011;17580;50.850;4.504;2023-03-01T02:38:40;6.30;;;5.30;;
10191;SDS011;17580;50.850;4.504;2023-03-01T02:41:08;9.17;;;6.07;;
10191;SDS011;17580;50.850;4.504;2023-03-01T02:43:37;7.03;;;5.40;;
10191;SDS011;17580;50.850;4.504;2023-03-01T02:46:05;6.17;;;5.53;;
10191;SDS011;17580;50.850;4.504;2023-03-01T02:48:40;5.83;;;5.33;;
10191;SDS011;17580;50.850;4.504;2023-03-01T02:51:10;6.33;;;5.73;;
10191;SDS011;17580;50.850;4.504;2023-03-01T02:53:49;5.07;;;4.67;;
10191;SDS011;17580;50.850;4.504;2023-03-01T02:56:27;5.77;;;5.27;;
10191;SDS011;17580;50.850;4.504;2023-03-01T02:58:57;6.20;;;5.17;;
10191;SDS011;17580;50.850;4.504;2023-03-01T03:01:26;5.93;;;5.10;;
10191;SDS011;17580;50.850;4.504;2023-03-01T03:04:01;8.33;;;5.73;;
10191;SDS011;17580;50.850;4.504;2023-03-01T03:06:29;7.83;;;6.23;;
10191;SDS011;17580;50.850;4.504;2023-03-01T03:08:56;6.40;;;5.80;;
10191;SDS011;17580;50.850;4.504;2023-03-01T03:11:23;6.43;;;5.80;;
10191;SDS011;17580;50.850;4.504;2023-03-01T03:13:51;6.73;;;6.03;;
10191;SDS011;17580;50.850;4.504;2023-03-01T03:16:19;7.60;;;5.30;;
10191;SDS011;17580;50.850;4.504;2023-03-01T03:18:47;6.27;;;5.73;;
10191;SDS011;17580;50.850;4.504;2023-03-01T03:21:14;6.50;;;5.87;;
10191;SDS011;17580;50.850;4.504;2023-03-01T03:23:42;6.17;;;5.57;;
10191;SDS011;17580;50.850;4.504;2023-03-01T03:26:09;6.80;;;5.50;;
10191;SDS011;17580;50.850;4.504;2023-03-01T03:28:38;6.37;;;5.77;;
10191;SDS011;17580;50.850;4.504;2023-03-01T03:31:06;6.60;;;6.00;;
10191;SDS011;17580;50.850;4.504;2023-03-01T03:33:35;9.00;;;5.43;;
10191;SDS011;17580;50.850;4.504;2023-03-01T03:36:02;6.77;;;5.90;;
10191;SDS011;17580;50.850;4.504;2023-03-01T03:38:30;7.17;;;6.10;;
10191;SDS011;17580;50.850;4.504;2023-03-01T03:41:02;6.10;;;5.50;;
10191;SDS011;17580;50.850;4.504;2023-03-01T03:43:31;6.03;;;5.43;;
10191;SDS011;17580;50.850;4.504;2023-03-01T03:46:00;6.73;;;6.03;;
10191;SDS011;17580;50.850;4.504;2023-03-01T03:48:30;7.57;;;5.67;;
10191;SDS011;17580;50.850;4.504;2023-03-01T03:51:00;6.27;;;5.37;;
10191;SDS011;17580;50.850;4.504;2023-03-01T03:53:30;6.23;;;5.63;;
10191;SDS011;17580;50.850;4.504;2023-03-01T03:55:57;5.30;;;4.80;;
10191;SDS011;17580;50.850;4.504;2023-03-01T03:58:25;6.07;;;5.43;;
10191;SDS011;17580;50.850;4.504;2023-03-01T04:00:53;8.73;;;6.23;;
10191;SDS011;17580;50.850;4.504;2023-03-01T04:03:22;6.10;;;5.23;;
10191;SDS011;17580;50.850;4.504;2023-03-01T04:05:50;6.57;;;5.97;;
10191;SDS011;17580;50.850;4.504;2023-03-01T04:08:19;6.50;;;5.40;;
10191;SDS011;17580;50.850;4.504;2023-03-01T04:10:48;7.37;;;5.87;;
10191;SDS011;17580;50.850;4.504;2023-03-01T04:13:16;6.37;;;5.77;;
10191;SDS011;17580;50.850;4.504;2023-03-01T04:15:45;6.47;;;5.87;;
10191;SDS011;17580;50.850;4.504;2023-03-01T04:18:13;7.50;;;6.17;;
10191;SDS011;17580;50.850;4.504;2023-03-01T04:20:41;6.17;;;5.57;;
10191;SDS011;17580;50.850;4.504;2023-03-01T04:23:11;7.40;;;6.33;;
10191;SDS011;17580;50.850;4.504;2023-03-01T04:25:44;7.47;;;6.17;;
10191;SDS011;17580;50.850;4.504;2023-03-01T04:28:14;7.83;;;5.37;;
10191;SDS011;17580;50.850;4.504;2023-03-01T04:30:42;6.03;;;5.13;;
10191;SDS011;17580;50.850;4.504;2023-03-01T04:33:09;7.20;;;5.57;;
10191;SDS011;17580;50.850;4.504;2023-03-01T04:35:37;6.03;;;5.43;;
10191;SDS011;17580;50.850;4.504;2023-03-01T04:38:05;6.40;;;5.77;;
10191;SDS011;17580;50.850;4.504;2023-03-01T04:40:33;5.57;;;5.07;;
10191;SDS011;17580;50.850;4.504;2023-03-01T04:43:01;8.97;;;5.30;;
10191;SDS011;17580;50.850;4.504;2023-03-01T04:45:29;7.33;;;6.23;;
10191;SDS011;17580;50.850;4.504;2023-03-01T04:47:59;5.67;;;5.17;;
10191;SDS011;17580;50.850;4.504;2023-03-01T04:50:26;6.20;;;5.60;;
10191;SDS011;17580;50.850;4.504;2023-03-01T04:52:53;7.27;;;6.20;;
10191;SDS011;17580;50.850;4.504;2023-03-01T04:55:23;8.37;;;5.80;;
10191;SDS011;17580;50.850;4.504;2023-03-01T04:57:51;7.30;;;5.63;;
10191;SDS011;17580;50.850;4.504;2023-03-01T05:00:20;5.90;;;5.23;;
10191;SDS011;17580;50.850;4.504;2023-03-01T05:02:49;7.93;;;5.93;;
10191;SDS011;17580;50.850;4.504;2023-03-01T05:05:22;8.27;;;6.90;;
10191;SDS011;17580;50.850;4.504;2023-03-01T05:07:52;8.97;;;5.43;;
10191;SDS011;17580;50.850;4.504;2023-03-01T05:10:20;7.93;;;5.70;;
10191;SDS011;17580;50.850;4.504;2023-03-01T05:12:47;5.87;;;5.37;;
10191;SDS011;17580;50.850;4.504;2023-03-01T05:15:14;6.57;;;5.87;;
10191;SDS011;17580;50.850;4.504;2023-03-01T05:17:43;6.37;;;5.77;;
10191;SDS011;17580;50.850;4.504;2023-03-01T05:20:11;7.10;;;5.87;;
10191;SDS011;17580;50.850;4.504;2023-03-01T05:22:38;6.27;;;5.67;;
10191;SDS011;17580;50.850;4.504;2023-03-01T05:25:05;6.97;;;6.27;;
10191;SDS011;17580;50.850;4.504;2023-03-01T05:27:33;7.17;;;6.27;;
10191;SDS011;17580;50.850;4.504;2023-03-01T05:30:00;6.53;;;5.93;;
10191;SDS011;17580;50.850;4.504;2023-03-01T05:32:39;10.23;;;7.90;;
10191;SDS011;17580;50.850;4.504;2023-03-01T05:35:09;13.63;;;9.47;;
10191;SDS011;17580;50.850;4.504;2023-03-01T05:37:40;17.57;;;10.20;;
10191;SDS011;17580;50.850;4.504;2023-03-01T05:40:08;12.93;;;8.77;;
10191;SDS011;17580;50.850;4.504;2023-03-01T05:42:43;9.87;;;7.13;;
10191;SDS011;17580;50.850;4.504;2023-03-01T05:45:11;8.67;;;7.07;;
10191;SDS011;17580;50.850;4.504;2023-03-01T05:47:39;9.57;;;6.27;;
10191;SDS011;17580;50.850;4.504;2023-03-01T05:50:11;12.93;;;7.83;;
10191;SDS011;17580;50.850;4.504;2023-03-01T05:52:43;8.30;;;6.70;;
10191;SDS011;17580;50.850;4.504;2023-03-01T05:55:11;10.43;;;7.00;;
10191;SDS011;17580;50.850;4.504;2023-03-01T05:57:38;11.57;;;7.73;;
10191;SDS011;17580;50.850;4.504;2023-03-01T06:00:06;9.37;;;6.90;;
10191;SDS011;17580;50.850;4.504;2023-03-01T06:02:34;9.50;;;6.77;;
10191;SDS011;17580;50.850;4.504;2023-03-01T06:05:01;7.22;;;6.50;;
10191;SDS011;17580;50.850;4.504;2023-03-01T06:07:30;7.33;;;6.50;;
10191;SDS011;17580;50.850;4.504;2023-03-01T06:09:57;7.33;;;6.47;;
10191;SDS011;17580;50.850;4.504;2023-03-01T06:12:24;6.80;;;6.10;;
10191;SDS011;17580;50.850;4.504;2023-03-01T06:14:51;9.77;;;6.43;;
10191;SDS011;17580;50.850;4.504;2023-03-01T06:17:18;6.77;;;6.13;;
10191;SDS011;17580;50.850;4.504;2023-03-01T06:19:46;6.97;;;5.50;;
10191;SDS011;17580;50.850;4.504;2023-03-01T06:22:13;6.13;;;5.53;;
10191;SDS011;17580;50.850;4.504;2023-03-01T06:24:41;6.33;;;5.73;;
10191;SDS011;17580;50.850;4.504;2023-03-01T06:27:08;7.80;;;5.93;;
10191;SDS011;17580;50.850;4.504;2023-03-01T06:29:35;9.60;;;6.27;;
10191;SDS011;17580;50.850;4.504;2023-03-01T06:32:02;7.17;;;5.40;;
10191;SDS011;17580;50.850;4.504;2023-03-01T06:34:30;6.03;;;5.53;;
10191;SDS011;17580;50.850;4.504;2023-03-01T06:36:58;7.03;;;6.23;;
10191;SDS011;17580;50.850;4.504;2023-03-01T06:39:25;6.47;;;5.87;;
10191;SDS011;17580;50.850;4.504;2023-03-01T06:41:55;6.43;;;5.63;;
10191;SDS011;17580;50.850;4.504;2023-03-01T06:44:22;7.60;;;5.90;;
10191;SDS011;17580;50.850;4.504;2023-03-01T06:46:49;7.23;;;5.77;;
10191;SDS011;17580;50.850;4.504;2023-03-01T06:49:16;7.47;;;5.60;;
10191;SDS011;17580;50.850;4.504;2023-03-01T06:51:45;6.27;;;5.50;;
10191;SDS011;17580;50.850;4.504;2023-03-01T06:54:12;6.63;;;5.67;;
10191;SDS011;17580;50.850;4.504;2023-03-01T06:56:39;6.97;;;6.27;;
10191;SDS011;17580;50.850;4.504;2023-03-01T06:59:07;6.93;;;6.23;;
10191;SDS011;17580;50.850;4.504;2023-03-01T07:01:34;6.87;;;6.13;;
10191;SDS011;17580;50.850;4.504;2023-03-01T07:04:01;6.00;;;5.50;;
10191;SDS011;17580;50.850;4.504;2023-03-01T07:06:28;7.23;;;6.37;;
10191;SDS011;17580;50.850;4.504;2023-03-01T07:08:55;6.60;;;5.93;;
10191;SDS011;17580;50.850;4.504;2023-03-01T07:11:22;7.60;;;6.73;;
10191;SDS011;17580;50.850;4.504;2023-03-01T07:13:50;6.67;;;5.63;;
10191;SDS011;17580;50.850;4.504;2023-03-01T07:16:18;6.20;;;5.50;;
10191;SDS011;17580;50.850;4.504;2023-03-01T07:18:46;9.23;;;6.80;;
10191;SDS011;17580;50.850;4.504;2023-03-01T07:21:14;6.83;;;5.77;;
10191;SDS011;17580;50.850;4.504;2023-03-01T07:23:41;7.33;;;5.60;;
10191;SDS011;17580;50.850;4.504;2023-03-01T07:26:08;6.07;;;5.23;;
10191;SDS011;17580;50.850;4.504;2023-03-01T07:28:35;12.20;;;6.53;;
10191;SDS011;17580;50.850;4.504;2023-03-01T07:31:04;7.17;;;6.47;;
10191;SDS011;17580;50.850;4.504;2023-03-01T07:33:33;8.53;;;6.10;;
10191;SDS011;17580;50.850;4.504;2023-03-01T07:36:01;8.30;;;7.10;;
10191;SDS011;17580;50.850;4.504;2023-03-01T07:38:29;6.47;;;5.70;;
10191;SDS011;17580;50.850;4.504;2023-03-01T07:40:57;8.73;;;6.30;;
10191;SDS011;17580;50.850;4.504;2023-03-01T07:43:25;9.07;;;6.20;;
10191;SDS011;17580;50.850;4.504;2023-03-01T07:45:52;10.77;;;6.67;;
10191;SDS011;17580;50.850;4.504;2023-03-01T07:48:19;7.20;;;6.10;;
10191;SDS011;17580;50.850;4.504;2023-03-01T07:50:47;6.73;;;5.97;;
10191;SDS011;17580;50.850;4.504;2023-03-01T07:53:14;7.60;;;5.70;;
10191;SDS011;17580;50.850;4.504;2023-03-01T07:55:41;7.30;;;6.43;;
10191;SDS011;17580;50.850;4.504;2023-03-01T07:58:08;6.43;;;5.83;;
10191;SDS011;17580;50.850;4.504;2023-03-01T08:00:35;8.30;;;5.93;;
10191;SDS011;17580;50.850;4.504;2023-03-01T08:03:02;8.23;;;7.30;;
10191;SDS011;17580;50.850;4.504;2023-03-01T08:05:29;7.90;;;7.07;;
10191;SDS011;17580;50.850;4.504;2023-03-01T08:07:58;8.27;;;6.53;;
10191;SDS011;17580;50.850;4.504;2023-03-01T08:10:25;8.77;;;6.93;;
10191;SDS011;17580;50.850;4.504;2023-03-01T08:12:52;12.70;;;6.27;;
10191;SDS011;17580;50.850;4.504;2023-03-01T08:15:19;9.30;;;7.17;;
10191;SDS011;17580;50.850;4.504;2023-03-01T08:17:48;7.57;;;6.67;;
10191;SDS011;17580;50.850;4.504;2023-03-01T08:20:16;10.70;;;7.50;;
10191;SDS011;17580;50.850;4.504;2023-03-01T08:22:43;8.43;;;5.93;;
10191;SDS011;17580;50.850;4.504;2023-03-01T08:25:11;6.50;;;5.90;;
10191;SDS011;17580;50.850;4.504;2023-03-01T08:27:38;7.43;;;6.67;;
10191;SDS011;17580;50.850;4.504;2023-03-01T08:30:06;6.43;;;5.30;;
10191;SDS011;17580;50.850;4.504;2023-03-01T08:32:37;8.10;;;6.30;;
10191;SDS011;17580;50.850;4.504;2023-03-01T08:35:05;6.93;;;6.23;;
10191;SDS011;17580;50.850;4.504;2023-03-01T08:37:32;8.63;;;6.33;;
10191;SDS011;17580;50.850;4.504;2023-03-01T08:39:59;8.67;;;6.90;;
10191;SDS011;17580;50.850;4.504;2023-03-01T08:42:29;10.03;;;6.67;;
10191;SDS011;17580;50.850;4.504;2023-03-01T08:44:56;9.67;;;7.50;;
10191;SDS011;17580;50.850;4.504;2023-03-01T08:47:23;6.90;;;6.20;;
10191;SDS011;17580;50.850;4.504;2023-03-01T08:49:51;7.57;;;6.57;;
10191;SDS011;17580;50.850;4.504;2023-03-01T08:52:18;7.93;;;7.00;;
10191;SDS011;17580;50.850;4.504;2023-03-01T08:54:46;7.97;;;7.17;;
10191;SDS011;17580;50.850;4.504;2023-03-01T08:57:14;6.40;;;5.90;;
10191;SDS011;17580;50.850;4.504;2023-03-01T08:59:42;8.33;;;6.97;;
10191;SDS011;17580;50.850;4.504;2023-03-01T09:02:11;7.40;;;6.70;;
10191;SDS011;17580;50.850;4.504;2023-03-01T09:04:39;9.67;;;6.97;;
10191;SDS011;17580;50.850;4.504;2023-03-01T09:07:06;7.60;;;6.90;;
10191;SDS011;17580;50.850;4.504;2023-03-01T09:09:33;7.60;;;6.90;;
10191;SDS011;17580;50.850;4.504;2023-03-01T09:12:01;7.13;;;6.53;;
10191;SDS011;17580;50.850;4.504;2023-03-01T09:14:29;7.80;;;6.97;;
10191;SDS011;17580;50.850;4.504;2023-03-01T09:16:58;8.27;;;6.43;;
10191;SDS011;17580;50.850;4.504;2023-03-01T09:19:27;8.30;;;7.53;;
10191;SDS011;17580;50.850;4.504;2023-03-01T09:21:54;7.73;;;6.97;;
10191;SDS011;17580;50.850;4.504;2023-03-01T09:24:23;8.63;;;7.40;;
10191;SDS011;17580;50.850;4.504;2023-03-01T09:26:52;8.43;;;7.60;;
10191;SDS011;17580;50.850;4.504;2023-03-01T09:29:21;7.33;;;6.73;;
10191;SDS011;17580;50.850;4.504;2023-03-01T09:31:48;8.47;;;7.60;;
10191;SDS011;17580;50.850;4.504;2023-03-01T09:34:17;7.90;;;7.20;;
10191;SDS011;17580;50.850;4.504;2023-03-01T09:36:48;9.63;;;7.20;;
10191;SDS011;17580;50.850;4.504;2023-03-01T09:39:16;7.37;;;6.80;;
10191;SDS011;17580;50.850;4.504;2023-03-01T09:41:45;8.97;;;8.00;;
10191;SDS011;17580;50.850;4.504;2023-03-01T09:44:18;8.00;;;7.30;;
10191;SDS011;17580;50.850;4.504;2023-03-01T09:46:53;8.03;;;7.33;;
10191;SDS011;17580;50.850;4.504;2023-03-01T09:49:24;8.00;;;7.30;;
10191;SDS011;17580;50.850;4.504;2023-03-01T09:51:58;7.73;;;7.13;;
10191;SDS011;17580;50.850;4.504;2023-03-01T09:54:27;8.60;;;7.90;;
10191;SDS011;17580;50.850;4.504;2023-03-01T09:56:59;7.60;;;7.00;;
10191;SDS011;17580;50.850;4.504;2023-03-01T09:59:34;8.27;;;7.67;;
10191;SDS011;17580;50.850;4.504;2023-03-01T10:02:16;9.40;;;8.60;;
10191;SDS011;17580;50.850;4.504;2023-03-01T10:04:53;8.90;;;8.10;;
10191;SDS011;17580;50.850;4.504;2023-03-01T10:07:27;8.03;;;7.33;;
10191;SDS011;17580;50.850;4.504;2023-03-01T10:09:58;10.03;;;8.30;;
10191;SDS011;17580;50.850;4.504;2023-03-01T10:12:31;8.83;;;7.83;;
10191;SDS011;17580;50.850;4.504;2023-03-01T10:15:03;10.40;;;9.30;;
10191;SDS011;17580;50.850;4.504;2023-03-01T10:17:36;9.20;;;8.20;;
10191;SDS011;17580;50.850;4.504;2023-03-01T10:20:14;9.47;;;8.67;;
10191;SDS011;17580;50.850;4.504;2023-03-01T10:22:43;9.47;;;8.63;;
10191;SDS011;17580;50.850;4.504;2023-03-01T10:25:15;9.90;;;8.40;;
10191;SDS011;17580;50.850;4.504;2023-03-01T10:27:49;8.83;;;8.03;;
10191;SDS011;17580;50.850;4.504;2023-03-01T10:30:19;9.40;;;8.50;;
10191;SDS011;17580;50.850;4.504;2023-03-01T10:32:50;9.27;;;8.43;;
10191;SDS011;17580;50.850;4.504;2023-03-01T10:35:21;9.40;;;8.50;;
10191;SDS011;17580;50.850;4.504;2023-03-01T10:38:02;10.07;;;9.07;;
10191;SDS011;17580;50.850;4.504;2023-03-01T10:40:30;9.67;;;8.83;;
10191;SDS011;17580;50.850;4.504;2023-03-01T10:42:58;10.27;;;8.63;;
10191;SDS011;17580;50.850;4.504;2023-03-01T10:45:30;8.43;;;7.73;;
10191;SDS011;17580;50.850;4.504;2023-03-01T10:48:11;10.10;;;9.13;;
10191;SDS011;17580;50.850;4.504;2023-03-01T10:50:41;8.57;;;7.77;;
10191;SDS011;17580;50.850;4.504;2023-03-01T10:55:56;9.07;;;8.20;;
10191;SDS011;17580;50.850;4.504;2023-03-01T10:58:25;9.43;;;8.43;;
10191;SDS011;17580;50.850;4.504;2023-03-01T11:00:54;8.20;;;7.50;;
10191;SDS011;17580;50.850;4.504;2023-03-01T11:03:23;9.57;;;8.20;;
10191;SDS011;17580;50.850;4.504;2023-03-01T11:05:54;8.60;;;7.77;;
10191;SDS011;17580;50.850;4.504;2023-03-01T11:08:29;8.17;;;7.37;;
10191;SDS011;17580;50.850;4.504;2023-03-01T11:11:13;8.73;;;7.80;;
10191;SDS011;17580;50.850;4.504;2023-03-01T11:13:57;8.67;;;7.97;;
10191;SDS011;17580;50.850;4.504;2023-03-01T11:16:26;9.07;;;8.00;;
10191;SDS011;17580;50.850;4.504;2023-03-01T11:19:14;9.43;;;7.67;;
10191;SDS011;17580;50.850;4.504;2023-03-01T11:21:49;9.87;;;8.87;;
10191;SDS011;17580;50.850;4.504;2023-03-01T11:24:23;8.87;;;8.07;;
10191;SDS011;17580;50.850;4.504;2023-03-01T11:26:55;9.57;;;8.37;;
10191;SDS011;17580;50.850;4.504;2023-03-01T11:29:27;9.10;;;8.27;;
10191;SDS011;17580;50.850;4.504;2023-03-01T11:32:01;9.73;;;8.10;;
10191;SDS011;17580;50.850;4.504;2023-03-01T11:34:36;9.10;;;8.20;;
10191;SDS011;17580;50.850;4.504;2023-03-01T11:37:21;9.23;;;8.33;;
10191;SDS011;17580;50.850;4.504;2023-03-01T11:39:57;8.93;;;8.03;;
10191;SDS011;17580;50.850;4.504;2023-03-01T11:42:42;7.80;;;7.10;;
10191;SDS011;17580;50.850;4.504;2023-03-01T11:45:25;8.27;;;7.40;;
10191;SDS011;17580;50.850;4.504;2023-03-01T11:48:09;7.43;;;6.73;;
10191;SDS011;17580;50.850;4.504;2023-03-01T11:50:51;8.20;;;7.50;;
10191;SDS011;17580;50.850;4.504;2023-03-01T11:53:29;8.67;;;7.77;;
10191;SDS011;17580;50.850;4.504;2023-03-01T11:56:10;8.07;;;7.37;;
10191;SDS011;17580;50.850;4.504;2023-03-01T11:58:49;8.93;;;6.83;;
10191;SDS011;17580;50.850;4.504;2023-03-01T12:01:47;9.77;;;8.00;;
10191;SDS011;17580;50.850;4.504;2023-03-01T12:07:33;8.50;;;7.80;;
10191;SDS011;17580;50.850;4.504;2023-03-01T12:10:15;9.10;;;7.70;;
10191;SDS011;17580;50.850;4.504;2023-03-01T12:12:56;7.57;;;6.97;;
10191;SDS011;17580;50.850;4.504;2023-03-01T12:15:56;9.00;;;7.77;;
10191;SDS011;17580;50.850;4.504;2023-03-01T12:18:39;7.30;;;6.70;;
10191;SDS011;17580;50.850;4.504;2023-03-01T12:21:30;8.60;;;7.23;;
10191;SDS011;17580;50.850;4.504;2023-03-01T12:24:10;8.30;;;7.50;;
10191;SDS011;17580;50.850;4.504;2023-03-01T12:26:54;7.80;;;7.10;;
10191;SDS011;17580;50.850;4.504;2023-03-01T12:29:29;8.83;;;8.03;;
10191;SDS011;17580;50.850;4.504;2023-03-01T12:32:04;7.70;;;7.00;;
10191;SDS011;17580;50.850;4.504;2023-03-01T12:34:51;7.57;;;6.87;;
10191;SDS011;17580;50.850;4.504;2023-03-01T12:37:29;8.00;;;7.30;;
10191;SDS011;17580;50.850;4.504;2023-03-01T12:40:15;8.43;;;7.63;;
10191;SDS011;17580;50.850;4.504;2023-03-01T12:42:57;7.50;;;6.73;;
10191;SDS011;17580;50.850;4.504;2023-03-01T12:45:39;7.37;;;6.67;;
10191;SDS011;17580;50.850;4.504;2023-03-01T12:48:18;7.37;;;6.73;;
10191;SDS011;17580;50.850;4.504;2023-03-01T12:50:57;7.30;;;6.70;;
10191;SDS011;17580;50.850;4.504;2023-03-01T12:53:28;10.03;;;8.93;;
10191;SDS011;17580;50.850;4.504;2023-03-01T12:55:58;8.93;;;7.97;;
10191;SDS011;17580;50.850;4.504;2023-03-01T12:58:29;8.23;;;7.50;;
10191;SDS011;17580;50.850;4.504;2023-03-01T13:01:11;7.80;;;7.10;;
10191;SDS011;17580;50.850;4.504;2023-03-01T13:06:40;9.57;;;8.03;;
10191;SDS011;17580;50.850;4.504;2023-03-01T13:09:14;9.33;;;8.43;;
10191;SDS011;17580;50.850;4.504;2023-03-01T13:11:51;7.93;;;7.27;;
10191;SDS011;17580;50.850;4.504;2023-03-01T13:19:56;7.03;;;6.50;;
10191;SDS011;17580;50.850;4.504;2023-03-01T13:22:25;7.80;;;7.10;;
10191;SDS011;17580;50.850;4.504;2023-03-01T13:25:00;10.20;;;7.80;;
10191;SDS011;17580;50.850;4.504;2023-03-01T13:27:29;9.43;;;6.90;;
10191;SDS011;17580;50.850;4.504;2023-03-01T13:29:59;8.23;;;7.27;;
10191;SDS011;17580;50.850;4.504;2023-03-01T13:32:31;6.50;;;6.00;;
10191;SDS011;17580;50.850;4.504;2023-03-01T13:34:58;11.27;;;7.50;;
10191;SDS011;17580;50.850;4.504;2023-03-01T13:37:27;8.67;;;7.77;;
10191;SDS011;17580;50.850;4.504;2023-03-01T13:39:57;8.43;;;7.57;;
10191;SDS011;17580;50.850;4.504;2023-03-01T13:42:31;7.93;;;7.07;;
10191;SDS011;17580;50.850;4.504;2023-03-01T13:45:18;9.13;;;7.30;;
10191;SDS011;17580;50.850;4.504;2023-03-01T13:47:49;8.30;;;7.47;;
10191;SDS011;17580;50.850;4.504;2023-03-01T13:50:21;7.43;;;6.67;;
10191;SDS011;17580;50.850;4.504;2023-03-01T13:52:52;11.43;;;6.23;;
10191;SDS011;17580;50.850;4.504;2023-03-01T13:55:24;7.03;;;6.43;;
10191;SDS011;17580;50.850;4.504;2023-03-01T13:58:01;7.27;;;6.57;;
10191;SDS011;17580;50.850;4.504;2023-03-01T14:00:34;8.07;;;7.27;;
10191;SDS011;17580;50.850;4.504;2023-03-01T14:03:03;8.87;;;7.63;;
10191;SDS011;17580;50.850;4.504;2023-03-01T14:05:41;7.70;;;7.07;;
10191;SDS011;17580;50.850;4.504;2023-03-01T14:08:20;9.40;;;7.30;;
10191;SDS011;17580;50.850;4.504;2023-03-01T14:14:14;8.13;;;7.33;;
10191;SDS011;17580;50.850;4.504;2023-03-01T14:17:13;8.83;;;7.57;;
10191;SDS011;17580;50.850;4.504;2023-03-01T14:20:11;7.20;;;6.60;;
10191;SDS011;17580;50.850;4.504;2023-03-01T14:22:42;7.97;;;7.27;;
10191;SDS011;17580;50.850;4.504;2023-03-01T14:25:17;9.83;;;7.43;;
10191;SDS011;17580;50.850;4.504;2023-03-01T14:28:00;7.70;;;6.93;;
10191;SDS011;17580;50.850;4.504;2023-03-01T14:30:31;9.77;;;7.10;;
10191;SDS011;17580;50.850;4.504;2023-03-01T14:33:03;14.47;;;6.90;;
10191;SDS011;17580;50.850;4.504;2023-03-01T14:35:33;8.33;;;7.30;;
10191;SDS011;17580;50.850;4.504;2023-03-01T14:38:01;7.37;;;6.60;;
10191;SDS011;17580;50.850;4.504;2023-03-01T14:40:30;8.83;;;6.97;;
10191;SDS011;17580;50.850;4.504;2023-03-01T14:42:59;9.93;;;7.10;;
10191;SDS011;17580;50.850;4.504;2023-03-01T14:45:29;7.33;;;6.50;;
10191;SDS011;17580;50.850;4.504;2023-03-01T14:47:58;8.43;;;7.57;;
10191;SDS011;17580;50.850;4.504;2023-03-01T14:50:30;8.10;;;7.30;;
10191;SDS011;17580;50.850;4.504;2023-03-01T14:52:58;12.23;;;7.60;;
10191;SDS011;17580;50.850;4.504;2023-03-01T14:55:29;8.40;;;6.93;;
10191;SDS011;17580;50.850;4.504;2023-03-01T14:57:59;6.97;;;6.37;;
10191;SDS011;17580;50.850;4.504;2023-03-01T15:00:30;8.00;;;7.17;;
10191;SDS011;17580;50.850;4.504;2023-03-01T15:03:00;7.77;;;6.97;;
10191;SDS011;17580;50.850;4.504;2023-03-01T15:05:39;8.37;;;6.40;;
10191;SDS011;17580;50.850;4.504;2023-03-01T15:08:11;8.27;;;6.90;;
10191;SDS011;17580;50.850;4.504;2023-03-01T15:13:30;7.97;;;7.17;;
10191;SDS011;17580;50.850;4.504;2023-03-01T15:16:02;7.07;;;6.37;;
10191;SDS011;17580;50.850;4.504;2023-03-01T15:18:32;6.80;;;6.20;;
10191;SDS011;17580;50.850;4.504;2023-03-01T15:21:08;8.40;;;7.00;;
10191;SDS011;17580;50.850;4.504;2023-03-01T15:23:41;7.33;;;6.63;;
10191;SDS011;17580;50.850;4.504;2023-03-01T15:26:17;11.13;;;7.40;;
10191;SDS011;17580;50.850;4.504;2023-03-01T15:28:50;8.07;;;6.13;;
10191;SDS011;17580;50.850;4.504;2023-03-01T15:31:20;7.40;;;6.70;;